Kota Kinabalu, Malaysia
Current Conditions -  °F | °C
As of 9:00 PM on Saturday 20 Dec 2014 (Local Time) from WBKK Reporting Station
Thunderstorm Thunderstorm  
Wind Chill: 77°   Ceiling: 13000
Heat Index: 78°   Visibility: 5mi
Dew Point: 77°   Wind: 7mph
Humidity: 100%   Direction: 80°E
Pressure: 29.8"   Gusts: NA
Location:  5.97°N, 116.07°E
Report Text: WBKK 201300Z 08006KT 050V110 8000 -TSRA FEW012 FEW016CB SCT030 BKN130 25/25 Q1009 NOSIG
Loading
Personal Weather Stations






























Interactive Weather Map New forecast layout! Learn more

10-Day Weather Forecast

Advertisements
Track Severe Weather on mobile